createdAt,value
2022-09-26T00:00:06.226Z,10.50
2022-09-26T00:02:38.901Z,10.50
2022-09-26T00:05:06.047Z,10.50
2022-09-26T00:07:32.825Z,10.50
2022-09-26T00:09:59.570Z,10.50
2022-09-26T00:12:26.335Z,10.50
2022-09-26T00:14:53.031Z,10.50
2022-09-26T00:17:19.779Z,10.60
2022-09-26T00:19:46.553Z,10.50
2022-09-26T00:22:13.271Z,10.60
2022-09-26T00:24:40.037Z,10.60
2022-09-26T00:27:06.795Z,10.60
2022-09-26T00:29:33.563Z,10.60
2022-09-26T00:32:00.346Z,10.50
2022-09-26T00:34:27.364Z,10.50
2022-09-26T00:36:54.133Z,10.50
2022-09-26T00:39:21.053Z,10.40
2022-09-26T00:41:47.839Z,10.40
2022-09-26T00:44:33.265Z,10.40
2022-09-26T00:47:00.510Z,10.30
2022-09-26T00:49:46.297Z,10.30
2022-09-26T00:52:15.060Z,10.30
2022-09-26T00:54:45.339Z,10.20
2022-09-26T00:57:14.327Z,10.20
2022-09-26T00:59:43.754Z,10.10
2022-09-26T01:02:11.368Z,10.00
2022-09-26T01:04:40.496Z,10.00
2022-09-26T01:07:09.595Z,10.00
2022-09-26T01:09:37.180Z,10.00
2022-09-26T01:12:05.919Z,9.90
2022-09-26T01:14:33.368Z,9.90
2022-09-26T01:17:00.385Z,9.90
2022-09-26T01:19:39.351Z,9.80
2022-09-26T01:22:24.876Z,9.80
2022-09-26T01:25:08.667Z,9.80
2022-09-26T01:27:38.906Z,9.80
2022-09-26T01:30:16.278Z,9.80
2022-09-26T01:32:48.704Z,9.80
2022-09-26T01:35:24.843Z,9.70
2022-09-26T01:38:25.154Z,9.70
2022-09-26T01:41:10.652Z,9.60
2022-09-26T01:43:47.780Z,9.60
2022-09-26T01:46:14.500Z,9.60
2022-09-26T01:48:48.386Z,9.60
2022-09-26T01:51:35.427Z,9.60
2022-09-26T01:54:05.901Z,9.60
2022-09-26T01:56:36.728Z,9.50
2022-09-26T01:59:07.223Z,9.60
2022-09-26T02:01:37.499Z,9.60
2022-09-26T02:04:08.684Z,9.60
2022-09-26T02:06:37.682Z,9.50
2022-09-26T02:09:08.181Z,9.50
2022-09-26T02:11:36.527Z,9.50
2022-09-26T02:14:04.345Z,9.50
2022-09-26T02:16:43.370Z,9.60
2022-09-26T02:19:15.285Z,9.50
2022-09-26T02:21:43.378Z,9.60
2022-09-26T02:24:11.267Z,9.60
2022-09-26T02:26:38.264Z,9.60
2022-09-26T02:29:06.725Z,9.50
2022-09-26T02:31:36.469Z,9.50
2022-09-26T02:34:04.168Z,9.50
2022-09-26T02:36:33.611Z,9.50
2022-09-26T02:39:01.955Z,9.50
2022-09-26T02:41:47.579Z,9.50
2022-09-26T02:44:20.936Z,9.50
2022-09-26T02:46:56.907Z,9.50
2022-09-26T02:49:38.982Z,9.50
2022-09-26T02:52:30.058Z,9.50
2022-09-26T02:54:56.949Z,9.50
2022-09-26T02:57:32.746Z,9.50
2022-09-26T03:00:08.734Z,9.50
2022-09-26T03:02:38.974Z,9.60
2022-09-26T03:05:14.595Z,9.60
2022-09-26T03:07:56.756Z,9.50
2022-09-26T03:10:26.593Z,9.50
2022-09-26T03:12:54.401Z,9.50
2022-09-26T03:15:22.006Z,9.50
2022-09-26T03:17:51.569Z,9.50
2022-09-26T03:20:19.770Z,9.50
2022-09-26T03:22:46.546Z,9.60
2022-09-26T03:25:21.327Z,9.60
2022-09-26T03:28:02.130Z,9.60
2022-09-26T03:30:32.502Z,9.60
2022-09-26T03:33:17.638Z,9.60
2022-09-26T03:35:44.409Z,9.60
2022-09-26T03:38:14.244Z,9.60
2022-09-26T03:40:46.764Z,9.60
2022-09-26T03:43:41.961Z,9.60
2022-09-26T03:46:08.947Z,9.60
2022-09-26T03:48:35.780Z,9.60
2022-09-26T03:51:10.944Z,9.60
2022-09-26T03:53:39.871Z,9.60
2022-09-26T03:56:10.917Z,9.70
2022-09-26T03:58:38.022Z,9.70
2022-09-26T04:01:09.532Z,9.70
2022-09-26T04:03:37.343Z,9.80
2022-09-26T04:06:04.544Z,9.80
2022-09-26T04:08:31.890Z,9.80
2022-09-26T04:11:02.685Z,9.80
2022-09-26T04:16:17.418Z,9.90
2022-09-26T04:18:55.337Z,9.80
2022-09-26T04:21:22.285Z,9.90
2022-09-26T04:23:50.258Z,9.90
2022-09-26T04:26:23.358Z,10.00
2022-09-26T04:28:52.246Z,10.00
2022-09-26T04:31:21.553Z,10.00
2022-09-26T04:33:57.169Z,10.00
2022-09-26T04:36:24.235Z,10.00
2022-09-26T04:38:51.151Z,10.00
2022-09-26T04:41:20.532Z,10.00
2022-09-26T04:43:48.737Z,10.10
2022-09-26T04:46:21.671Z,10.10
2022-09-26T04:48:51.551Z,10.10
2022-09-26T04:51:20.866Z,10.10
2022-09-26T04:53:50.498Z,10.10
2022-09-26T04:56:21.992Z,10.10
2022-09-26T04:58:49.036Z,10.10
2022-09-26T05:01:17.503Z,10.10
2022-09-26T05:04:04.616Z,10.20
2022-09-26T05:06:33.090Z,10.20
2022-09-26T05:09:01.857Z,10.20
2022-09-26T05:11:44.643Z,10.20
2022-09-26T05:14:13.185Z,10.20
2022-09-26T05:16:40.290Z,10.20
2022-09-26T05:19:11.881Z,10.20
2022-09-26T05:21:46.296Z,10.20
2022-09-26T05:24:31.684Z,10.20
2022-09-26T05:26:59.714Z,10.20
2022-09-26T05:29:26.479Z,10.20
2022-09-26T05:32:01.480Z,10.20
2022-09-26T05:34:32.385Z,10.20
2022-09-26T05:36:59.784Z,10.20
2022-09-26T05:39:44.967Z,10.20
2022-09-26T05:42:12.846Z,10.20
2022-09-26T05:44:39.839Z,10.30
2022-09-26T05:47:07.636Z,10.30
2022-09-26T05:49:36.674Z,10.30
2022-09-26T05:52:04.100Z,10.30
2022-09-26T05:54:31.267Z,10.30
2022-09-26T05:56:59.241Z,10.30
2022-09-26T05:59:44.726Z,10.30
2022-09-26T06:02:26.402Z,10.30
2022-09-26T06:05:12.977Z,10.30
2022-09-26T06:08:01.822Z,10.30
2022-09-26T06:10:38.991Z,10.30
2022-09-26T06:13:07.409Z,10.30
2022-09-26T06:15:43.224Z,10.40
2022-09-26T06:18:10.048Z,10.40
2022-09-26T06:20:37.891Z,10.40
2022-09-26T06:23:05.477Z,10.50
2022-09-26T06:25:32.999Z,10.50
2022-09-26T06:28:01.820Z,10.50
2022-09-26T06:30:30.160Z,10.50
2022-09-26T06:33:03.978Z,10.50
2022-09-26T06:35:38.053Z,10.60
2022-09-26T06:38:17.371Z,10.60
2022-09-26T06:40:44.789Z,10.60
2022-09-26T06:43:11.586Z,10.60
2022-09-26T06:45:56.851Z,10.70
2022-09-26T06:48:36.260Z,10.70
2022-09-26T06:51:15.612Z,10.70
2022-09-26T06:53:45.899Z,10.80
2022-09-26T06:56:16.133Z,10.70
2022-09-26T06:58:43.023Z,10.70
2022-09-26T07:01:11.074Z,10.80
2022-09-26T07:03:54.592Z,10.80
2022-09-26T07:06:50.545Z,10.80
2022-09-26T07:09:17.747Z,10.80
2022-09-26T07:12:13.471Z,10.90
2022-09-26T07:14:37.984Z,10.90
2022-09-26T07:17:20.020Z,10.90
2022-09-26T07:20:05.680Z,10.90
2022-09-26T07:22:53.046Z,11.00
2022-09-26T07:25:19.836Z,11.00
2022-09-26T07:27:49.633Z,11.00
2022-09-26T07:30:16.575Z,11.10
2022-09-26T07:33:00.569Z,11.00
2022-09-26T07:35:46.982Z,11.10
2022-09-26T07:38:13.716Z,11.10
2022-09-26T07:40:43.253Z,11.10
2022-09-26T07:43:19.974Z,11.10
2022-09-26T07:46:11.701Z,11.10
2022-09-26T07:48:59.982Z,11.10
2022-09-26T07:51:45.768Z,11.00
2022-09-26T07:54:17.990Z,11.00
2022-09-26T07:57:14.430Z,11.00
2022-09-26T07:59:51.732Z,11.00
2022-09-26T08:02:37.073Z,11.00
2022-09-26T08:05:05.799Z,11.00
2022-09-26T08:07:34.069Z,11.00
2022-09-26T08:10:15.465Z,11.00
2022-09-26T08:13:02.171Z,11.00
2022-09-26T08:15:53.256Z,11.10
2022-09-26T08:18:25.484Z,11.10
2022-09-26T08:20:53.873Z,11.10
2022-09-26T08:23:21.197Z,11.10
2022-09-26T08:26:08.017Z,11.10
2022-09-26T08:28:42.670Z,11.20
2022-09-26T08:31:10.239Z,11.20
2022-09-26T08:33:38.819Z,11.30
2022-09-26T08:36:06.508Z,11.30
2022-09-26T08:38:52.921Z,11.40
2022-09-26T08:41:49.884Z,11.50
2022-09-26T08:44:38.282Z,11.60
2022-09-26T08:47:42.741Z,11.60
2022-09-26T08:50:37.622Z,11.70
2022-09-26T08:53:10.758Z,11.80
2022-09-26T08:55:46.182Z,11.90
2022-09-26T08:58:19.490Z,11.90
2022-09-26T09:00:51.429Z,12.00
2022-09-26T09:03:36.047Z,12.00
2022-09-26T09:06:04.901Z,12.10
2022-09-26T09:08:39.963Z,12.20
2022-09-26T09:11:19.928Z,12.20
2022-09-26T09:13:53.402Z,12.30
2022-09-26T09:16:30.996Z,12.30
2022-09-26T09:19:39.565Z,12.30
2022-09-26T09:22:44.989Z,12.30
2022-09-26T09:25:32.294Z,12.20
2022-09-26T09:28:28.613Z,12.30
2022-09-26T09:31:00.226Z,12.30
2022-09-26T09:33:43.646Z,12.40
2022-09-26T09:36:32.106Z,12.40
2022-09-26T09:39:16.176Z,12.50
2022-09-26T09:42:03.645Z,12.60
2022-09-26T09:44:33.355Z,12.60
2022-09-26T09:47:00.585Z,12.70
2022-09-26T09:49:27.515Z,12.80
2022-09-26T09:52:13.260Z,12.80
2022-09-26T09:54:51.366Z,12.80
2022-09-26T09:57:18.095Z,12.90
2022-09-26T09:59:44.987Z,13.00
2022-09-26T10:02:11.968Z,13.00
2022-09-26T10:04:44.452Z,13.00
2022-09-26T10:07:12.391Z,13.00
2022-09-26T10:09:43.982Z,13.00
2022-09-26T10:12:30.690Z,12.90
2022-09-26T10:15:20.072Z,13.00
2022-09-26T10:18:24.867Z,13.20
2022-09-26T10:21:12.056Z,13.30
2022-09-26T10:23:40.006Z,13.40
2022-09-26T10:26:13.783Z,13.50
2022-09-26T10:28:48.533Z,13.60
2022-09-26T10:31:24.211Z,13.60
2022-09-26T10:34:23.634Z,13.60
2022-09-26T10:36:50.427Z,13.60
2022-09-26T10:39:37.178Z,13.50
2022-09-26T10:42:14.080Z,13.60
2022-09-26T10:44:42.826Z,13.60
2022-09-26T10:47:33.347Z,13.60
2022-09-26T10:50:22.160Z,13.60
2022-09-26T10:53:10.029Z,13.60
2022-09-26T10:55:40.858Z,13.70
2022-09-26T10:58:14.395Z,13.70
2022-09-26T11:00:44.870Z,13.70
2022-09-26T11:03:35.211Z,13.70
2022-09-26T11:06:34.294Z,13.70
2022-09-26T11:09:23.700Z,13.60
2022-09-26T11:12:25.833Z,13.50
2022-09-26T11:14:58.819Z,13.40
2022-09-26T11:18:01.125Z,13.50
2022-09-26T11:20:33.539Z,13.50
2022-09-26T11:23:09.686Z,13.50
2022-09-26T11:25:57.957Z,13.50
2022-09-26T11:28:31.534Z,13.40
2022-09-26T11:31:29.229Z,13.40
2022-09-26T11:34:21.801Z,13.30
2022-09-26T11:37:00.731Z,13.30
2022-09-26T11:39:35.298Z,13.30
2022-09-26T11:42:07.967Z,13.30
2022-09-26T11:44:40.935Z,13.30
2022-09-26T11:47:38.487Z,13.40
2022-09-26T11:50:24.103Z,13.70
2022-09-26T11:53:19.259Z,13.80
2022-09-26T11:55:58.325Z,13.90
2022-09-26T11:58:38.576Z,13.90
2022-09-26T12:01:17.286Z,13.90
2022-09-26T12:04:06.563Z,14.00
2022-09-26T12:06:42.721Z,14.00
2022-09-26T12:09:16.602Z,14.00
2022-09-26T12:11:53.163Z,14.00
2022-09-26T12:14:29.082Z,14.10
2022-09-26T12:17:01.880Z,14.20
2022-09-26T12:19:43.135Z,14.30
2022-09-26T12:22:28.552Z,14.30
2022-09-26T12:25:22.831Z,14.30
2022-09-26T12:27:52.996Z,14.40
2022-09-26T12:30:21.551Z,14.50
2022-09-26T12:32:48.318Z,14.50
2022-09-26T12:35:23.253Z,14.50
2022-09-26T12:37:53.298Z,14.60
2022-09-26T12:40:29.222Z,14.50
2022-09-26T12:43:02.356Z,14.50
2022-09-26T12:45:32.113Z,14.50
2022-09-26T12:48:17.630Z,14.40
2022-09-26T12:50:44.346Z,14.50
2022-09-26T12:53:29.855Z,14.40
2022-09-26T12:55:59.533Z,14.40
2022-09-26T12:58:29.630Z,14.30
2022-09-26T13:00:56.611Z,14.30
2022-09-26T13:03:26.319Z,14.30
2022-09-26T13:06:08.844Z,14.30
2022-09-26T13:08:44.086Z,14.40
2022-09-26T13:11:10.799Z,14.30
2022-09-26T13:13:37.496Z,14.30
2022-09-26T13:16:20.491Z,14.30
2022-09-26T13:18:49.376Z,14.30
2022-09-26T13:21:19.060Z,14.20
2022-09-26T13:23:53.822Z,14.30
2022-09-26T13:26:29.100Z,14.30
2022-09-26T13:29:17.114Z,14.30
2022-09-26T13:31:48.078Z,14.40
2022-09-26T13:34:18.369Z,14.40
2022-09-26T13:36:45.869Z,14.50
2022-09-26T13:39:27.011Z,14.50
2022-09-26T13:41:53.984Z,14.40
2022-09-26T13:44:28.460Z,14.50
2022-09-26T13:46:59.267Z,14.50
2022-09-26T13:49:28.913Z,14.40
2022-09-26T13:52:20.455Z,14.40
2022-09-26T13:55:00.375Z,14.40
2022-09-26T13:57:27.144Z,14.40
2022-09-26T13:59:54.444Z,14.40
2022-09-26T14:02:27.176Z,14.30
2022-09-26T14:05:13.915Z,14.20
2022-09-26T14:07:59.305Z,14.20
2022-09-26T14:10:26.078Z,14.20
2022-09-26T14:13:13.055Z,14.20
2022-09-26T14:15:49.358Z,14.30
2022-09-26T14:18:28.144Z,14.30
2022-09-26T14:20:54.961Z,14.30
2022-09-26T14:23:38.798Z,14.40
2022-09-26T14:26:10.545Z,14.40
2022-09-26T14:28:38.539Z,14.40
2022-09-26T14:31:28.828Z,14.30
2022-09-26T14:34:10.328Z,14.30
2022-09-26T14:36:37.314Z,14.20
2022-09-26T14:39:05.141Z,14.20
2022-09-26T14:41:33.480Z,14.10
2022-09-26T14:44:05.821Z,14.00
2022-09-26T14:46:35.578Z,14.00
2022-09-26T14:49:05.326Z,13.90
2022-09-26T14:51:41.232Z,14.00
2022-09-26T14:54:19.445Z,14.00
2022-09-26T14:56:51.201Z,13.90
2022-09-26T14:59:36.193Z,13.80
2022-09-26T15:02:15.325Z,13.70
2022-09-26T15:04:43.517Z,13.60
2022-09-26T15:07:19.794Z,13.60
2022-09-26T15:09:54.484Z,13.60
2022-09-26T15:12:41.552Z,13.50
2022-09-26T15:15:08.362Z,13.50
2022-09-26T15:17:39.607Z,13.40
2022-09-26T15:20:12.734Z,13.40
2022-09-26T15:22:42.453Z,13.40
2022-09-26T15:25:10.807Z,13.30
2022-09-26T15:27:46.087Z,13.20
2022-09-26T15:30:17.005Z,13.20
2022-09-26T15:32:44.101Z,13.20
2022-09-26T15:35:12.444Z,13.10
2022-09-26T15:37:39.426Z,13.10
2022-09-26T15:40:26.056Z,13.10
2022-09-26T15:43:22.252Z,13.00
2022-09-26T15:45:58.398Z,13.00
2022-09-26T15:48:25.828Z,13.00
2022-09-26T15:50:58.557Z,12.90
2022-09-26T15:53:25.314Z,12.90
2022-09-26T15:55:52.097Z,12.80
2022-09-26T15:58:22.953Z,12.70
2022-09-26T16:00:51.130Z,12.70
2022-09-26T16:03:19.801Z,12.60
2022-09-26T16:05:48.880Z,12.60
2022-09-26T16:08:20.263Z,12.60
2022-09-26T16:10:53.551Z,12.50
2022-09-26T16:13:25.272Z,12.40
2022-09-26T16:16:02.813Z,12.40
2022-09-26T16:18:39.896Z,12.40
2022-09-26T16:21:18.465Z,12.40
2022-09-26T16:23:49.708Z,12.30
2022-09-26T16:26:43.374Z,12.30
2022-09-26T16:29:10.848Z,12.20
2022-09-26T16:31:44.509Z,12.20
2022-09-26T16:34:22.305Z,12.20
2022-09-26T16:36:50.032Z,12.20
2022-09-26T16:39:21.772Z,12.10
2022-09-26T16:42:03.119Z,12.10
2022-09-26T16:44:36.390Z,12.10
2022-09-26T16:47:05.919Z,12.00
2022-09-26T16:49:39.776Z,12.00
2022-09-26T16:52:11.521Z,11.90
2022-09-26T16:54:38.296Z,11.90
2022-09-26T16:57:05.388Z,11.80
2022-09-26T16:59:32.459Z,11.80
2022-09-26T17:02:02.395Z,11.70
2022-09-26T17:04:31.140Z,11.70
2022-09-26T17:06:58.848Z,11.70
2022-09-26T17:09:30.572Z,11.70
2022-09-26T17:11:58.943Z,11.60
2022-09-26T17:14:29.801Z,11.60
2022-09-26T17:16:58.264Z,11.60
2022-09-26T17:19:27.131Z,11.50
2022-09-26T17:21:54.934Z,11.50
2022-09-26T17:24:23.456Z,11.50
2022-09-26T17:26:53.314Z,11.40
2022-09-26T17:29:22.674Z,11.40
2022-09-26T17:31:49.465Z,11.40
2022-09-26T17:34:16.379Z,11.40
2022-09-26T17:36:46.382Z,11.40
2022-09-26T17:39:14.676Z,11.40
2022-09-26T17:41:42.263Z,11.40
2022-09-26T17:44:09.144Z,11.40
2022-09-26T17:46:38.319Z,11.40
2022-09-26T17:49:08.320Z,11.30
2022-09-26T17:51:36.238Z,11.40
2022-09-26T17:54:03.092Z,11.30
2022-09-26T17:56:30.033Z,11.30
2022-09-26T17:58:57.051Z,11.20
2022-09-26T18:01:23.803Z,11.20
2022-09-26T18:03:51.695Z,11.20
2022-09-26T18:06:27.641Z,11.10
2022-09-26T18:08:58.250Z,11.10
2022-09-26T18:11:25.137Z,11.10
2022-09-26T18:13:54.453Z,11.10
2022-09-26T18:16:22.101Z,11.10
2022-09-26T18:18:48.900Z,11.10
2022-09-26T18:21:17.422Z,11.00
2022-09-26T18:23:44.110Z,11.10
2022-09-26T18:26:30.192Z,11.00
2022-09-26T18:28:57.662Z,11.00
2022-09-26T18:31:31.580Z,11.00
2022-09-26T18:33:58.756Z,11.00
2022-09-26T18:36:26.260Z,11.00
2022-09-26T18:38:53.056Z,11.00
2022-09-26T18:41:22.021Z,11.00
2022-09-26T18:43:52.206Z,10.90
2022-09-26T18:46:19.111Z,11.00
2022-09-26T18:48:46.447Z,11.00
2022-09-26T18:51:13.302Z,11.00
2022-09-26T18:53:41.013Z,11.00
2022-09-26T18:56:26.496Z,10.90
2022-09-26T18:58:53.615Z,10.90
2022-09-26T19:01:28.324Z,11.00
2022-09-26T19:03:55.866Z,11.00
2022-09-26T19:06:24.142Z,11.00
2022-09-26T19:08:57.926Z,11.00
2022-09-26T19:11:25.392Z,11.00
2022-09-26T19:13:53.970Z,11.00
2022-09-26T19:16:21.501Z,11.00
2022-09-26T19:18:49.296Z,11.00
2022-09-26T19:21:16.001Z,10.90
2022-09-26T19:23:42.800Z,10.90
2022-09-26T19:26:12.086Z,10.90
2022-09-26T19:28:38.861Z,10.80
2022-09-26T19:31:05.676Z,10.80
2022-09-26T19:33:32.854Z,10.80
2022-09-26T19:35:59.678Z,10.80
2022-09-26T19:38:26.863Z,10.80
2022-09-26T19:40:53.938Z,10.70
2022-09-26T19:43:21.815Z,10.70
2022-09-26T19:45:51.558Z,10.60
2022-09-26T19:48:19.841Z,10.60
2022-09-26T19:50:47.178Z,10.60
2022-09-26T19:53:15.391Z,10.60
2022-09-26T19:55:42.480Z,10.60
2022-09-26T19:58:13.723Z,10.60
2022-09-26T20:00:44.773Z,10.60
2022-09-26T20:03:17.767Z,10.60
2022-09-26T20:05:45.519Z,10.60
2022-09-26T20:08:22.723Z,10.60
2022-09-26T20:10:50.002Z,10.60
2022-09-26T20:13:17.034Z,10.70
2022-09-26T20:15:44.406Z,10.60
2022-09-26T20:18:21.927Z,10.60
2022-09-26T20:20:55.623Z,10.70
2022-09-26T20:23:25.038Z,10.70
2022-09-26T20:25:52.573Z,10.70
2022-09-26T20:28:19.631Z,10.70
2022-09-26T20:30:52.215Z,10.80
2022-09-26T20:33:22.216Z,10.80
2022-09-26T20:36:01.650Z,10.80
2022-09-26T20:38:30.571Z,10.80
2022-09-26T20:41:01.993Z,10.80
2022-09-26T20:43:32.117Z,10.80
2022-09-26T20:45:59.107Z,10.90
2022-09-26T20:48:27.488Z,10.90
2022-09-26T20:50:54.761Z,10.90
2022-09-26T20:53:23.229Z,10.90
2022-09-26T20:55:50.537Z,10.90
2022-09-26T20:58:17.281Z,10.90
2022-09-26T21:00:44.567Z,10.90
2022-09-26T21:03:12.425Z,10.90
2022-09-26T21:05:39.323Z,11.00
2022-09-26T21:08:10.119Z,10.90
2022-09-26T21:10:36.945Z,11.00
2022-09-26T21:13:03.762Z,11.00
2022-09-26T21:15:32.169Z,11.00
2022-09-26T21:17:59.566Z,11.00
2022-09-26T21:20:28.063Z,11.00
2022-09-26T21:23:01.557Z,11.00
2022-09-26T21:25:30.252Z,11.00
2022-09-26T21:28:01.485Z,11.00
2022-09-26T21:30:29.100Z,11.00
2022-09-26T21:32:56.935Z,11.00
2022-09-26T21:35:26.944Z,10.90
2022-09-26T21:37:54.979Z,10.80
2022-09-26T21:40:23.063Z,10.90
2022-09-26T21:42:52.416Z,10.80
2022-09-26T21:45:23.617Z,10.80
2022-09-26T21:47:57.059Z,10.80
2022-09-26T21:50:25.537Z,10.80
2022-09-26T21:52:59.073Z,10.80
2022-09-26T21:55:29.863Z,10.70
2022-09-26T21:58:00.019Z,10.70
2022-09-26T22:00:26.801Z,10.70
2022-09-26T22:02:55.133Z,10.70
2022-09-26T22:05:22.291Z,10.70
2022-09-26T22:07:49.097Z,10.60
2022-09-26T22:10:15.905Z,10.60
2022-09-26T22:12:43.240Z,10.60
2022-09-26T22:15:10.193Z,10.60
2022-09-26T22:17:36.904Z,10.60
2022-09-26T22:20:04.277Z,10.60
2022-09-26T22:22:31.159Z,10.60
2022-09-26T22:25:02.573Z,10.60
2022-09-26T22:27:29.637Z,10.60
2022-09-26T22:29:56.395Z,10.50
2022-09-26T22:32:23.341Z,10.50
2022-09-26T22:34:50.061Z,10.50
2022-09-26T22:37:16.850Z,10.40
2022-09-26T22:39:43.877Z,10.40
2022-09-26T22:42:11.983Z,10.30
2022-09-26T22:44:38.692Z,10.30
2022-09-26T22:47:05.633Z,10.30
2022-09-26T22:49:32.617Z,10.20
2022-09-26T22:52:00.367Z,10.20
2022-09-26T22:54:27.125Z,10.20
2022-09-26T22:56:54.344Z,10.10
2022-09-26T22:59:21.073Z,10.10
2022-09-26T23:01:49.947Z,10.10
2022-09-26T23:04:16.720Z,10.10
2022-09-26T23:06:43.438Z,10.10
2022-09-26T23:09:10.257Z,10.00
2022-09-26T23:11:37.083Z,10.00
2022-09-26T23:14:04.032Z,10.00
2022-09-26T23:16:30.908Z,10.00
2022-09-26T23:18:57.905Z,10.00
2022-09-26T23:21:26.033Z,10.00
2022-09-26T23:23:54.981Z,9.90
2022-09-26T23:26:29.284Z,9.90
2022-09-26T23:28:56.854Z,9.90
2022-09-26T23:31:23.981Z,9.90
2022-09-26T23:33:51.707Z,9.90
2022-09-26T23:36:19.635Z,9.90
2022-09-26T23:38:46.595Z,9.90
2022-09-26T23:41:13.715Z,10.00
2022-09-26T23:43:40.517Z,10.00
2022-09-26T23:46:07.739Z,9.90
2022-09-26T23:48:34.935Z,9.90
2022-09-26T23:51:01.813Z,9.90
2022-09-26T23:53:28.538Z,9.90
2022-09-26T23:56:05.226Z,9.90
2022-09-26T23:58:32.507Z,9.90
